createdAt,value
2023-05-21T00:00:08.383Z,22.40
2023-05-21T00:01:10.789Z,20.73
2023-05-21T00:02:15.348Z,23.27
2023-05-21T00:03:17.648Z,28.77
2023-05-21T00:04:19.767Z,24.80
2023-05-21T00:05:22.080Z,23.90
2023-05-21T00:06:24.512Z,24.00
2023-05-21T00:07:26.348Z,24.23
2023-05-21T00:08:28.482Z,26.30
2023-05-21T00:09:30.520Z,25.48
2023-05-21T00:10:32.327Z,24.58
2023-05-21T00:11:34.153Z,26.38
2023-05-21T00:12:36.001Z,26.40
2023-05-21T00:13:38.635Z,23.60
2023-05-21T00:14:40.438Z,25.15
2023-05-21T00:15:42.348Z,21.98
2023-05-21T00:16:45.110Z,25.00
2023-05-21T00:17:47.118Z,24.13
2023-05-21T00:18:54.329Z,27.15
2023-05-21T00:19:57.063Z,26.17
2023-05-21T00:20:59.305Z,21.77
2023-05-21T00:22:03.554Z,24.15
2023-05-21T00:23:05.421Z,22.58
2023-05-21T00:24:07.361Z,24.17
2023-05-21T00:25:09.970Z,23.20
2023-05-21T00:26:11.922Z,22.85
2023-05-21T00:27:14.088Z,24.05
2023-05-21T00:28:16.073Z,23.27
2023-05-21T00:29:18.478Z,24.60
2023-05-21T00:30:20.407Z,30.00
2023-05-21T00:31:22.390Z,21.25
2023-05-21T00:32:24.406Z,21.63
2023-05-21T00:33:26.599Z,23.55
2023-05-21T00:34:29.597Z,24.80
2023-05-21T00:35:31.427Z,23.33
2023-05-21T00:36:34.756Z,23.10
2023-05-21T00:37:36.621Z,25.65
2023-05-21T00:38:38.407Z,24.33
2023-05-21T00:39:40.221Z,24.95
2023-05-21T00:40:41.991Z,29.45
2023-05-21T00:41:46.591Z,25.40
2023-05-21T00:42:49.859Z,27.23
2023-05-21T00:43:52.788Z,25.38
2023-05-21T00:44:54.663Z,25.23
2023-05-21T00:45:58.231Z,25.30
2023-05-21T00:47:03.736Z,26.52
2023-05-21T00:48:06.497Z,24.33
2023-05-21T00:49:08.454Z,24.30
2023-05-21T00:50:11.707Z,27.73
2023-05-21T00:51:14.943Z,25.58
2023-05-21T00:52:20.253Z,24.35
2023-05-21T00:53:22.012Z,26.77
2023-05-21T00:54:24.967Z,23.23
2023-05-21T00:55:27.039Z,28.00
2023-05-21T00:56:29.012Z,24.90
2023-05-21T00:57:33.337Z,26.08
2023-05-21T00:58:36.022Z,24.00
2023-05-21T00:59:37.829Z,26.45
2023-05-21T01:00:40.741Z,23.55
2023-05-21T01:01:45.555Z,26.33
2023-05-21T01:02:47.987Z,28.77
2023-05-21T01:03:49.851Z,27.15
2023-05-21T01:04:54.621Z,27.80
2023-05-21T01:06:00.086Z,26.97
2023-05-21T01:07:02.195Z,25.55
2023-05-21T01:08:04.358Z,26.15
2023-05-21T01:09:07.245Z,23.58
2023-05-21T01:10:11.474Z,25.95
2023-05-21T01:11:14.962Z,24.73
2023-05-21T01:12:18.793Z,25.65
2023-05-21T01:13:23.160Z,26.33
2023-05-21T01:14:25.461Z,25.75
2023-05-21T01:15:27.634Z,23.15
2023-05-21T01:16:29.553Z,26.70
2023-05-21T01:17:31.870Z,22.40
2023-05-21T01:18:35.273Z,26.52
2023-05-21T01:19:37.566Z,26.85
2023-05-21T01:20:39.516Z,29.30
2023-05-21T01:21:46.046Z,24.48
2023-05-21T01:22:57.644Z,24.15
2023-05-21T01:23:59.539Z,29.33
2023-05-21T01:25:02.951Z,26.25
2023-05-21T01:26:04.888Z,26.83
2023-05-21T01:27:07.775Z,26.50
2023-05-21T01:28:09.652Z,28.08
2023-05-21T01:29:13.315Z,28.00
2023-05-21T01:30:18.147Z,27.38
2023-05-21T01:31:42.230Z,23.75
2023-05-21T01:33:08.253Z,25.48
2023-05-21T01:34:13.045Z,26.00
2023-05-21T01:35:30.479Z,24.38
2023-05-21T01:36:38.088Z,25.48
2023-05-21T01:37:57.690Z,23.63
2023-05-21T01:39:09.346Z,24.93
2023-05-21T01:40:28.946Z,28.08
2023-05-21T01:41:36.846Z,30.67
2023-05-21T01:42:42.578Z,29.98
2023-05-21T01:43:46.290Z,24.27
2023-05-21T01:44:49.468Z,26.20
2023-05-21T01:45:55.601Z,24.48
2023-05-21T01:46:58.763Z,27.30
2023-05-21T01:48:00.927Z,22.85
2023-05-21T01:49:05.269Z,25.13
2023-05-21T01:50:08.356Z,23.97
2023-05-21T01:51:10.736Z,25.63
2023-05-21T01:52:12.982Z,27.48
2023-05-21T01:53:15.780Z,24.60
2023-05-21T01:54:17.634Z,22.63
2023-05-21T01:55:24.497Z,28.25
2023-05-21T01:56:28.492Z,25.70
2023-05-21T01:57:30.430Z,25.35
2023-05-21T01:58:32.279Z,21.80
2023-05-21T01:59:34.546Z,26.50
2023-05-21T02:00:37.462Z,25.83
2023-05-21T02:01:39.419Z,25.80
2023-05-21T02:02:41.450Z,25.52
2023-05-21T02:03:43.357Z,27.75
2023-05-21T02:04:46.244Z,22.40
2023-05-21T02:05:48.172Z,25.75
2023-05-21T02:06:49.985Z,21.20
2023-05-21T02:07:52.736Z,22.70
2023-05-21T02:08:55.563Z,27.52
2023-05-21T02:09:57.419Z,22.63
2023-05-21T02:10:59.209Z,24.97
2023-05-21T02:12:01.328Z,27.20
2023-05-21T02:13:03.402Z,22.17
2023-05-21T02:14:05.382Z,22.45
2023-05-21T02:15:07.571Z,22.23
2023-05-21T02:16:14.982Z,30.08
2023-05-21T02:17:17.475Z,21.58
2023-05-21T02:18:21.431Z,22.33
2023-05-21T02:19:23.275Z,26.63
2023-05-21T02:20:25.075Z,20.58
2023-05-21T02:21:27.203Z,21.30
2023-05-21T02:22:29.044Z,25.58
2023-05-21T02:23:30.885Z,20.83
2023-05-21T02:24:32.696Z,24.05
2023-05-21T02:25:34.628Z,22.15
2023-05-21T02:26:37.379Z,22.13
2023-05-21T02:27:40.643Z,22.02
2023-05-21T02:28:42.422Z,22.95
2023-05-21T02:29:44.196Z,23.15
2023-05-21T02:30:46.017Z,23.77
2023-05-21T02:31:47.934Z,23.27
2023-05-21T02:32:49.862Z,21.98
2023-05-21T02:33:51.759Z,22.35
2023-05-21T02:34:53.555Z,24.00
2023-05-21T02:35:55.376Z,28.10
2023-05-21T02:36:58.791Z,24.83
2023-05-21T02:38:03.172Z,24.50
2023-05-21T02:39:05.011Z,24.88
2023-05-21T02:40:07.922Z,26.52
2023-05-21T02:41:12.142Z,24.90
2023-05-21T02:42:13.973Z,26.00
2023-05-21T02:43:16.251Z,24.08
2023-05-21T02:44:19.330Z,22.25
2023-05-21T02:45:21.119Z,24.85
2023-05-21T02:46:23.034Z,26.80
2023-05-21T02:47:25.549Z,25.15
2023-05-21T02:48:27.386Z,24.90
2023-05-21T02:49:29.178Z,25.88
2023-05-21T02:50:30.924Z,25.58
2023-05-21T02:51:32.702Z,26.60
2023-05-21T02:52:34.745Z,28.73
2023-05-21T02:53:36.528Z,24.25
2023-05-21T02:54:39.620Z,29.67
2023-05-21T02:55:42.082Z,26.48
2023-05-21T02:56:43.924Z,29.17
2023-05-21T02:57:45.805Z,25.95
2023-05-21T02:58:47.570Z,26.55
2023-05-21T02:59:49.423Z,27.83
2023-05-21T03:00:52.671Z,30.33
2023-05-21T03:01:54.551Z,27.95
2023-05-21T03:02:56.730Z,26.90
2023-05-21T03:03:58.590Z,28.33
2023-05-21T03:05:01.462Z,30.10
2023-05-21T03:06:03.474Z,26.15
2023-05-21T03:07:06.015Z,28.25
2023-05-21T03:08:07.840Z,29.13
2023-05-21T03:09:09.878Z,27.30
2023-05-21T03:10:11.730Z,28.38
2023-05-21T03:11:13.555Z,30.60
2023-05-21T03:12:15.397Z,26.10
2023-05-21T03:13:17.222Z,29.73
2023-05-21T03:14:19.092Z,29.90
2023-05-21T03:15:24.228Z,29.13
2023-05-21T03:16:26.252Z,26.83
2023-05-21T03:17:28.019Z,31.27
2023-05-21T03:18:29.800Z,29.27
2023-05-21T03:19:35.947Z,29.50
2023-05-21T03:20:43.527Z,28.70
2023-05-21T03:21:45.421Z,27.40
2023-05-21T03:22:48.275Z,26.55
2023-05-21T03:23:51.402Z,29.37
2023-05-21T03:24:53.614Z,27.48
2023-05-21T03:25:55.384Z,30.20
2023-05-21T03:26:57.496Z,28.05
2023-05-21T03:27:59.288Z,29.98
2023-05-21T03:29:01.531Z,27.60
2023-05-21T03:30:04.776Z,28.73
2023-05-21T03:31:07.853Z,28.25
2023-05-21T03:32:09.755Z,25.65
2023-05-21T03:33:12.328Z,28.85
2023-05-21T03:34:14.195Z,28.60
2023-05-21T03:35:16.033Z,29.33
2023-05-21T03:36:18.090Z,26.55
2023-05-21T03:37:19.894Z,34.35
2023-05-21T03:38:21.744Z,27.90
2023-05-21T03:39:23.565Z,27.40
2023-05-21T03:40:25.639Z,27.77
2023-05-21T03:41:27.544Z,26.20
2023-05-21T03:42:29.348Z,27.48
2023-05-21T03:43:31.240Z,28.05
2023-05-21T03:44:33.055Z,28.97
2023-05-21T03:45:35.230Z,31.63
2023-05-21T03:46:37.214Z,31.15
2023-05-21T03:47:39.132Z,26.95
2023-05-21T03:48:41.080Z,26.73
2023-05-21T03:49:42.880Z,37.78
2023-05-21T03:50:44.688Z,26.05
2023-05-21T03:51:46.505Z,25.80
2023-05-21T03:52:48.339Z,26.63
2023-05-21T03:53:50.864Z,30.40
2023-05-21T03:54:52.667Z,24.90
2023-05-21T03:55:57.146Z,27.33
2023-05-21T03:56:59.972Z,24.58
2023-05-21T03:58:02.160Z,26.90
2023-05-21T03:59:04.069Z,25.98
2023-05-21T04:00:07.235Z,27.40
2023-05-21T04:01:09.125Z,25.48
2023-05-21T04:02:11.294Z,30.50
2023-05-21T04:03:13.204Z,29.27
2023-05-21T04:04:15.207Z,24.55
2023-05-21T04:05:17.044Z,26.40
2023-05-21T04:06:19.034Z,27.27
2023-05-21T04:07:20.833Z,25.85
2023-05-21T04:08:22.626Z,28.35
2023-05-21T04:09:24.495Z,23.35
2023-05-21T04:10:26.977Z,27.92
2023-05-21T04:11:28.784Z,27.85
2023-05-21T04:12:30.635Z,25.38
2023-05-21T04:13:32.441Z,24.25
2023-05-21T04:14:34.409Z,27.40
2023-05-21T04:15:36.370Z,28.33
2023-05-21T04:16:38.729Z,25.35
2023-05-21T04:17:41.591Z,26.17
2023-05-21T04:18:45.531Z,26.52
2023-05-21T04:19:47.564Z,25.83
2023-05-21T04:20:50.121Z,27.33
2023-05-21T04:21:51.947Z,26.33
2023-05-21T04:22:53.755Z,25.55
2023-05-21T04:23:57.594Z,24.00
2023-05-21T04:24:59.699Z,23.85
2023-05-21T04:26:01.780Z,23.23
2023-05-21T04:27:03.719Z,24.20
2023-05-21T04:28:05.537Z,25.00
2023-05-21T04:29:07.402Z,26.08
2023-05-21T04:30:09.701Z,22.73
2023-05-21T04:31:13.703Z,23.98
2023-05-21T04:32:17.771Z,26.63
2023-05-21T04:33:20.120Z,23.13
2023-05-21T04:34:21.981Z,24.27
2023-05-21T04:35:23.759Z,24.42
2023-05-21T04:36:25.607Z,22.17
2023-05-21T04:37:28.244Z,24.98
2023-05-21T04:38:30.243Z,25.27
2023-05-21T04:39:32.190Z,30.52
2023-05-21T04:40:33.998Z,24.27
2023-05-21T04:41:39.187Z,26.13
2023-05-21T04:42:41.287Z,26.33
2023-05-21T04:43:44.039Z,22.80
2023-05-21T04:44:45.894Z,25.33
2023-05-21T04:45:47.709Z,24.30
2023-05-21T04:46:50.566Z,22.47
2023-05-21T04:47:52.533Z,23.40
2023-05-21T04:48:58.082Z,26.52
2023-05-21T04:49:59.864Z,27.15
2023-05-21T04:51:01.673Z,25.35
2023-05-21T04:52:03.587Z,24.77
2023-05-21T04:53:05.367Z,23.95
2023-05-21T04:54:07.534Z,22.08
2023-05-21T04:55:09.501Z,24.20
2023-05-21T04:56:11.264Z,20.75
2023-05-21T04:57:13.456Z,23.37
2023-05-21T04:58:18.382Z,25.95
2023-05-21T04:59:21.105Z,22.40
2023-05-21T05:00:25.594Z,21.45
2023-05-21T05:01:29.729Z,24.60
2023-05-21T05:02:31.628Z,22.00
2023-05-21T05:03:33.542Z,22.52
2023-05-21T05:04:35.553Z,24.25
2023-05-21T05:05:37.757Z,22.15
2023-05-21T05:06:39.893Z,21.23
2023-05-21T05:07:41.717Z,22.47
2023-05-21T05:08:43.783Z,22.95
2023-05-21T05:09:45.705Z,21.13
2023-05-21T05:10:47.515Z,23.13
2023-05-21T05:11:49.286Z,26.42
2023-05-21T05:12:51.689Z,20.88
2023-05-21T05:13:53.794Z,20.75
2023-05-21T05:14:55.661Z,20.10
2023-05-21T05:15:57.531Z,21.48
2023-05-21T05:17:00.825Z,20.85
2023-05-21T05:18:02.737Z,21.77
2023-05-21T05:19:04.597Z,20.45
2023-05-21T05:20:10.038Z,19.30
2023-05-21T05:21:11.897Z,23.92
2023-05-21T05:22:13.765Z,25.10
2023-05-21T05:23:15.627Z,20.13
2023-05-21T05:24:17.518Z,20.52
2023-05-21T05:25:19.494Z,26.58
2023-05-21T05:26:21.713Z,18.77
2023-05-21T05:27:23.537Z,20.33
2023-05-21T05:28:25.391Z,20.60
2023-05-21T05:29:27.188Z,22.45
2023-05-21T05:30:29.061Z,20.83
2023-05-21T05:31:31.172Z,19.77
2023-05-21T05:32:33.217Z,17.90
2023-05-21T05:33:35.106Z,20.35
2023-05-21T05:34:37.947Z,20.05
2023-05-21T05:35:39.735Z,23.10
2023-05-21T05:36:41.525Z,20.85
2023-05-21T05:37:43.271Z,18.60
2023-05-21T05:38:45.081Z,21.43
2023-05-21T05:39:47.104Z,18.13
2023-05-21T05:40:48.896Z,19.95
2023-05-21T05:41:50.781Z,20.67
2023-05-21T05:42:52.806Z,20.05
2023-05-21T05:43:54.966Z,18.58
2023-05-21T05:44:57.029Z,21.55
2023-05-21T05:45:58.958Z,21.05
2023-05-21T05:47:01.035Z,17.95
2023-05-21T05:48:02.940Z,21.42
2023-05-21T05:49:04.885Z,21.30
2023-05-21T05:50:07.080Z,18.23
2023-05-21T05:51:09.230Z,22.70
2023-05-21T05:52:11.035Z,19.00
2023-05-21T05:53:15.559Z,19.42
2023-05-21T05:54:17.378Z,19.65
2023-05-21T05:55:19.235Z,25.08
2023-05-21T05:56:21.684Z,20.35
2023-05-21T05:57:23.449Z,18.17
2023-05-21T05:58:25.316Z,17.83
2023-05-21T05:59:27.091Z,18.07
2023-05-21T06:00:28.886Z,18.33
2023-05-21T06:01:31.959Z,17.13
2023-05-21T06:02:33.882Z,17.80
2023-05-21T06:03:36.160Z,21.13
2023-05-21T06:04:38.137Z,26.50
2023-05-21T06:05:40.264Z,20.42
2023-05-21T06:06:42.322Z,18.80
2023-05-21T06:07:44.084Z,18.23
2023-05-21T06:08:46.322Z,23.05
2023-05-21T06:09:48.084Z,15.83
2023-05-21T06:10:50.047Z,18.00
2023-05-21T06:11:52.058Z,17.85
2023-05-21T06:12:53.918Z,17.30
2023-05-21T06:13:56.080Z,20.13
2023-05-21T06:14:57.842Z,15.02
2023-05-21T06:15:59.873Z,17.77
2023-05-21T06:17:01.778Z,19.55
2023-05-21T06:18:04.028Z,19.88
2023-05-21T06:19:05.933Z,15.55
2023-05-21T06:20:12.279Z,19.53
2023-05-21T06:21:14.100Z,18.38
2023-05-21T06:22:16.008Z,19.00
2023-05-21T06:23:17.933Z,16.10
2023-05-21T06:24:19.735Z,17.17
2023-05-21T06:25:21.941Z,16.13
2023-05-21T06:26:23.905Z,21.83
2023-05-21T06:27:25.669Z,17.40
2023-05-21T06:28:27.626Z,18.08
2023-05-21T06:29:29.514Z,15.45
2023-05-21T06:30:31.326Z,18.17
2023-05-21T06:31:33.377Z,17.02
2023-05-21T06:32:35.542Z,17.40
2023-05-21T06:33:37.634Z,16.63
2023-05-21T06:34:39.437Z,18.67
2023-05-21T06:35:41.210Z,16.90
2023-05-21T06:36:43.075Z,17.50
2023-05-21T06:37:45.187Z,16.08
2023-05-21T06:38:47.850Z,17.75
2023-05-21T06:39:50.041Z,19.33
2023-05-21T06:40:51.903Z,17.80
2023-05-21T06:41:53.792Z,16.30
2023-05-21T06:42:56.394Z,13.63
2023-05-21T06:43:58.195Z,16.90
2023-05-21T06:45:00.015Z,16.77
2023-05-21T06:46:01.961Z,13.98
2023-05-21T06:47:03.860Z,15.45
2023-05-21T06:48:05.808Z,16.95
2023-05-21T06:49:07.934Z,17.10
2023-05-21T06:50:10.140Z,15.95
2023-05-21T06:51:12.201Z,21.03
2023-05-21T06:52:13.999Z,18.60
2023-05-21T06:53:16.567Z,18.75
2023-05-21T06:54:18.428Z,14.98
2023-05-21T06:55:20.318Z,15.15
2023-05-21T06:56:22.555Z,14.00
2023-05-21T06:57:24.344Z,18.60
2023-05-21T06:58:31.091Z,14.73
2023-05-21T06:59:32.961Z,16.88
2023-05-21T07:00:34.785Z,15.10
2023-05-21T07:01:36.766Z,15.83
2023-05-21T07:02:38.860Z,16.02
2023-05-21T07:03:41.019Z,16.17
2023-05-21T07:04:42.872Z,18.17
2023-05-21T07:05:44.700Z,21.67
2023-05-21T07:06:46.785Z,17.30
2023-05-21T07:07:48.605Z,14.38
2023-05-21T07:08:50.543Z,15.25
2023-05-21T07:09:52.329Z,15.30
2023-05-21T07:10:54.158Z,14.32
2023-05-21T07:11:56.017Z,18.70
2023-05-21T07:12:57.849Z,18.85
2023-05-21T07:14:03.957Z,18.65
2023-05-21T07:15:06.277Z,15.20
2023-05-21T07:16:08.224Z,20.60
2023-05-21T07:17:10.065Z,17.10
2023-05-21T07:18:12.164Z,14.73
2023-05-21T07:19:15.557Z,15.32
2023-05-21T07:20:17.478Z,14.88
2023-05-21T07:21:19.283Z,18.98
2023-05-21T07:22:21.053Z,18.20
2023-05-21T07:23:22.948Z,16.48
2023-05-21T07:24:27.450Z,15.18
2023-05-21T07:25:29.280Z,18.20
2023-05-21T07:26:31.085Z,14.30
2023-05-21T07:27:32.975Z,20.23
2023-05-21T07:28:34.739Z,18.23
2023-05-21T07:29:36.557Z,14.82
2023-05-21T07:30:38.311Z,12.88
2023-05-21T07:31:40.167Z,18.73
2023-05-21T07:32:42.132Z,15.37
2023-05-21T07:33:44.123Z,16.60
2023-05-21T07:34:45.918Z,19.48
2023-05-21T07:35:47.812Z,17.05
2023-05-21T07:36:49.577Z,18.67
2023-05-21T07:37:51.388Z,16.85
2023-05-21T07:38:53.361Z,14.85
2023-05-21T07:39:57.064Z,19.70
2023-05-21T07:40:58.917Z,15.15
2023-05-21T07:42:00.826Z,14.23
2023-05-21T07:43:02.722Z,15.50
2023-05-21T07:44:04.754Z,15.75
2023-05-21T07:45:07.311Z,12.38
2023-05-21T07:46:09.743Z,15.13
2023-05-21T07:47:11.553Z,13.90
2023-05-21T07:48:14.216Z,20.80
2023-05-21T07:49:17.065Z,16.20
2023-05-21T07:50:19.008Z,13.80
2023-05-21T07:51:21.010Z,12.98
2023-05-21T07:52:22.843Z,16.85
2023-05-21T07:53:24.653Z,14.47
2023-05-21T07:54:26.450Z,15.93
2023-05-21T07:55:28.283Z,13.02
2023-05-21T07:56:30.173Z,12.27
2023-05-21T07:57:31.970Z,13.40
2023-05-21T07:58:35.232Z,13.73
2023-05-21T07:59:37.074Z,12.55
2023-05-21T08:00:47.039Z,15.70
2023-05-21T08:01:49.261Z,14.63
2023-05-21T08:02:52.345Z,13.38
2023-05-21T08:03:54.578Z,18.07
2023-05-21T08:04:56.454Z,13.20
2023-05-21T08:05:58.329Z,14.23
2023-05-21T08:07:00.151Z,12.45
2023-05-21T08:08:01.940Z,12.50
2023-05-21T08:09:04.699Z,19.55
2023-05-21T08:10:07.122Z,18.27
2023-05-21T08:11:08.896Z,13.75
2023-05-21T08:12:14.303Z,14.65
2023-05-21T08:13:17.009Z,15.48
2023-05-21T08:14:18.893Z,13.67
2023-05-21T08:15:21.173Z,13.45
2023-05-21T08:16:23.654Z,16.63
2023-05-21T08:17:25.547Z,14.02
2023-05-21T08:18:27.417Z,13.18
2023-05-21T08:19:29.324Z,11.57
2023-05-21T08:20:32.569Z,11.07
2023-05-21T08:21:34.615Z,11.40
2023-05-21T08:22:36.391Z,18.92
2023-05-21T08:23:38.577Z,12.40
2023-05-21T08:24:41.385Z,14.57
2023-05-21T08:25:43.205Z,13.80
2023-05-21T08:26:45.138Z,12.48
2023-05-21T08:27:46.999Z,16.73
2023-05-21T08:28:48.847Z,11.88
2023-05-21T08:29:50.649Z,14.18
2023-05-21T08:30:52.490Z,11.98
2023-05-21T08:31:54.410Z,13.57
2023-05-21T08:32:56.377Z,18.00
2023-05-21T08:33:58.226Z,13.50
2023-05-21T08:35:00.756Z,13.77
2023-05-21T08:36:03.247Z,11.98
2023-05-21T08:37:05.120Z,17.33
2023-05-21T08:38:06.913Z,14.32
2023-05-21T08:39:09.035Z,13.20
2023-05-21T08:40:12.324Z,10.93
2023-05-21T08:41:14.795Z,11.00
2023-05-21T08:42:48.071Z,12.05
2023-05-21T08:44:00.231Z,10.93
2023-05-21T08:45:06.702Z,12.23
2023-05-21T08:46:09.941Z,10.47
2023-05-21T08:47:16.314Z,13.50
2023-05-21T08:48:19.064Z,15.25
2023-05-21T08:49:27.492Z,16.55
2023-05-21T08:50:31.409Z,13.65
2023-05-21T08:51:33.633Z,13.98
2023-05-21T08:52:35.973Z,13.48
2023-05-21T08:53:37.808Z,13.07
2023-05-21T08:54:39.910Z,11.35
2023-05-21T08:55:42.820Z,10.05
2023-05-21T08:56:49.223Z,12.93
2023-05-21T08:57:53.955Z,12.95
2023-05-21T08:58:56.368Z,12.82
2023-05-21T08:59:59.549Z,10.38
2023-05-21T09:01:01.738Z,13.65
2023-05-21T09:02:05.171Z,14.25
2023-05-21T09:03:13.804Z,19.42
2023-05-21T09:04:21.206Z,11.60
2023-05-21T09:05:25.028Z,12.63
2023-05-21T09:06:27.892Z,15.85
2023-05-21T09:07:31.725Z,13.27
2023-05-21T09:08:36.743Z,11.80
2023-05-21T09:09:47.190Z,11.43
2023-05-21T09:10:50.957Z,15.18
2023-05-21T09:11:52.942Z,12.45
2023-05-21T09:12:54.769Z,12.93
2023-05-21T09:13:58.304Z,10.55
2023-05-21T09:15:01.181Z,12.55
2023-05-21T09:16:03.041Z,15.90
2023-05-21T09:17:05.155Z,12.68
2023-05-21T09:18:07.105Z,10.90
2023-05-21T09:19:08.946Z,14.48
2023-05-21T09:20:15.240Z,11.57
2023-05-21T09:21:25.018Z,10.35
2023-05-21T09:22:27.521Z,12.90
2023-05-21T09:23:29.554Z,16.63
2023-05-21T09:24:35.119Z,13.93
2023-05-21T09:25:39.319Z,10.98
2023-05-21T09:26:44.390Z,14.25
2023-05-21T09:27:46.220Z,10.50
2023-05-21T09:28:48.342Z,10.73
2023-05-21T09:29:50.128Z,10.95
2023-05-21T09:30:54.721Z,15.77
2023-05-21T09:31:56.503Z,10.60
2023-05-21T09:32:59.929Z,11.13
2023-05-21T09:34:01.830Z,17.15
2023-05-21T09:35:14.091Z,12.50
2023-05-21T09:36:20.195Z,11.93
2023-05-21T09:38:29.463Z,12.75
2023-05-21T09:39:31.402Z,9.93
2023-05-21T09:40:35.703Z,12.23
2023-05-21T09:41:38.386Z,13.77
2023-05-21T09:42:46.402Z,13.23
2023-05-21T09:43:48.265Z,11.80
2023-05-21T09:44:50.134Z,9.82
2023-05-21T09:45:54.070Z,10.13
2023-05-21T09:47:01.612Z,10.30
2023-05-21T09:48:03.628Z,7.75
2023-05-21T09:49:05.664Z,10.35
2023-05-21T09:50:08.800Z,13.23
2023-05-21T09:51:18.483Z,10.18
2023-05-21T09:52:28.175Z,8.90
2023-05-21T09:53:30.092Z,10.85
2023-05-21T09:54:33.486Z,10.65
2023-05-21T09:55:36.661Z,12.02
2023-05-21T09:56:40.049Z,10.10
2023-05-21T09:57:48.124Z,12.32
2023-05-21T09:58:56.794Z,10.25
2023-05-21T09:59:58.775Z,9.63
2023-05-21T10:01:01.114Z,12.73
2023-05-21T10:02:03.343Z,10.40
2023-05-21T10:03:11.034Z,11.85
2023-05-21T10:04:13.718Z,8.45
2023-05-21T10:05:16.866Z,9.55
2023-05-21T10:06:19.312Z,12.15
2023-05-21T10:07:25.882Z,12.30
2023-05-21T10:08:34.713Z,9.23
2023-05-21T10:09:36.759Z,9.85
2023-05-21T10:10:40.553Z,10.15
2023-05-21T10:11:44.879Z,10.57
2023-05-21T10:12:48.128Z,9.85
2023-05-21T10:13:58.738Z,11.18
2023-05-21T10:15:03.804Z,10.50
2023-05-21T10:16:05.989Z,8.55
2023-05-21T10:17:08.849Z,11.15
2023-05-21T10:18:12.457Z,7.47
2023-05-21T10:19:16.108Z,12.48
2023-05-21T10:20:18.411Z,9.98
2023-05-21T10:21:22.898Z,9.80
2023-05-21T10:22:25.613Z,9.43
2023-05-21T10:23:28.209Z,13.70
2023-05-21T10:24:31.226Z,7.78
2023-05-21T10:25:33.497Z,13.80
2023-05-21T10:26:36.673Z,8.85
2023-05-21T10:27:39.243Z,9.82
2023-05-21T10:28:41.350Z,11.63
2023-05-21T10:29:45.305Z,8.88
2023-05-21T10:30:47.241Z,8.38
2023-05-21T10:31:51.310Z,10.02
2023-05-21T10:32:56.990Z,8.70
2023-05-21T10:34:00.402Z,10.40
2023-05-21T10:35:02.609Z,8.18
2023-05-21T10:36:05.706Z,11.13
2023-05-21T10:37:09.422Z,9.38
2023-05-21T10:38:13.674Z,10.02
2023-05-21T10:39:17.259Z,8.90
2023-05-21T10:40:19.151Z,14.68
2023-05-21T10:41:22.560Z,7.95
2023-05-21T10:42:47.026Z,9.32
2023-05-21T10:44:06.688Z,8.73
2023-05-21T10:45:35.780Z,12.48
2023-05-21T10:47:05.274Z,14.98
2023-05-21T10:48:28.159Z,8.63
2023-05-21T10:50:11.280Z,7.47
2023-05-21T10:51:34.838Z,9.70
2023-05-21T10:52:57.957Z,7.97
2023-05-21T10:54:14.815Z,9.18
2023-05-21T10:55:19.710Z,10.85
2023-05-21T10:56:40.213Z,13.75
2023-05-21T10:57:50.981Z,10.17
2023-05-21T10:59:18.298Z,14.95
2023-05-21T11:00:21.180Z,14.18
2023-05-21T11:01:26.371Z,14.05
2023-05-21T11:02:29.373Z,12.55
2023-05-21T11:03:36.538Z,9.90
2023-05-21T11:04:43.200Z,11.07
2023-05-21T11:05:57.199Z,11.23
2023-05-21T11:06:59.298Z,10.68
2023-05-21T11:08:02.396Z,8.15
2023-05-21T11:09:14.528Z,13.53
2023-05-21T11:10:38.530Z,8.70
2023-05-21T11:11:45.078Z,6.80
2023-05-21T11:13:24.562Z,7.85
2023-05-21T11:14:40.535Z,7.38
2023-05-21T11:16:06.063Z,7.90
2023-05-21T11:17:15.022Z,6.47
2023-05-21T11:18:16.960Z,7.35
2023-05-21T11:19:19.415Z,5.68
2023-05-21T11:20:22.782Z,6.78
2023-05-21T11:21:28.496Z,6.20
2023-05-21T11:22:30.477Z,6.05
2023-05-21T11:23:50.870Z,5.30
2023-05-21T11:24:54.522Z,4.38
2023-05-21T11:26:02.517Z,6.03
2023-05-21T11:27:05.705Z,7.35
2023-05-21T11:28:09.583Z,9.38
2023-05-21T11:29:12.062Z,6.95
2023-05-21T11:30:19.132Z,8.43
2023-05-21T11:31:25.760Z,8.05
2023-05-21T11:32:27.706Z,5.30
2023-05-21T11:33:29.567Z,4.97
2023-05-21T11:34:46.021Z,7.22
2023-05-21T11:35:54.385Z,10.05
2023-05-21T11:37:18.025Z,8.40
2023-05-21T11:38:19.828Z,4.97
2023-05-21T11:39:25.824Z,7.25
2023-05-21T11:40:30.216Z,5.40
2023-05-21T11:41:49.375Z,4.60
2023-05-21T11:42:53.048Z,7.72
2023-05-21T11:44:01.382Z,6.20
2023-05-21T11:45:04.209Z,5.28
2023-05-21T11:46:06.367Z,10.10
2023-05-21T11:47:16.093Z,7.88
2023-05-21T11:48:18.388Z,4.53
2023-05-21T11:49:22.426Z,6.63
2023-05-21T11:50:24.473Z,9.73
2023-05-21T11:51:26.442Z,6.35
2023-05-21T11:52:32.826Z,7.05
2023-05-21T11:53:34.694Z,7.95
2023-05-21T11:54:57.245Z,7.23
2023-05-21T11:56:01.965Z,9.43
2023-05-21T11:57:10.124Z,8.77
2023-05-21T11:58:14.416Z,10.90
2023-05-21T11:59:18.687Z,7.38
2023-05-21T12:00:21.643Z,11.10
2023-05-21T12:01:26.580Z,6.72
2023-05-21T12:02:32.647Z,6.13
2023-05-21T12:03:37.642Z,6.15
2023-05-21T12:04:39.485Z,8.20
2023-05-21T12:05:46.213Z,5.50
2023-05-21T12:06:48.303Z,7.10
2023-05-21T12:07:50.609Z,7.60
2023-05-21T12:08:52.724Z,7.78
2023-05-21T12:09:54.540Z,5.20
2023-05-21T12:10:59.882Z,6.20
2023-05-21T12:12:02.194Z,12.95
2023-05-21T12:13:05.368Z,6.18
2023-05-21T12:14:09.214Z,9.35
2023-05-21T12:15:13.374Z,7.38
2023-05-21T12:16:15.413Z,5.90
2023-05-21T12:17:19.997Z,7.60
2023-05-21T12:18:22.219Z,5.70
2023-05-21T12:19:24.173Z,6.43
2023-05-21T12:20:28.075Z,9.35
2023-05-21T12:21:31.518Z,7.05
2023-05-21T12:22:33.318Z,7.70
2023-05-21T12:23:36.412Z,8.65
2023-05-21T12:24:39.637Z,6.88
2023-05-21T12:25:41.489Z,6.05
2023-05-21T12:26:45.990Z,5.57
2023-05-21T12:27:49.725Z,9.15
2023-05-21T12:28:57.797Z,6.90
2023-05-21T12:29:59.681Z,6.30
2023-05-21T12:31:01.455Z,5.90
2023-05-21T12:32:06.704Z,8.35
2023-05-21T12:33:08.672Z,7.97
2023-05-21T12:34:10.853Z,9.52
2023-05-21T12:35:23.624Z,11.55
2023-05-21T12:36:31.933Z,6.53
2023-05-21T12:37:35.785Z,6.30
2023-05-21T12:38:37.615Z,6.85
2023-05-21T12:39:40.555Z,6.47
2023-05-21T12:40:43.732Z,6.88
2023-05-21T12:41:45.645Z,9.85
2023-05-21T12:42:47.611Z,9.02
2023-05-21T12:43:50.837Z,8.02
2023-05-21T12:44:53.345Z,6.70
2023-05-21T12:45:55.208Z,10.10
2023-05-21T12:46:57.634Z,6.53
2023-05-21T12:48:03.046Z,7.40
2023-05-21T12:49:05.617Z,7.72
2023-05-21T12:50:13.963Z,9.00
2023-05-21T12:51:15.945Z,6.60
2023-05-21T12:52:21.006Z,8.98
2023-05-21T12:53:22.762Z,10.82
2023-05-21T12:54:35.483Z,7.05
2023-05-21T12:55:37.259Z,8.45
2023-05-21T12:56:45.935Z,10.35
2023-05-21T12:57:47.894Z,7.28
2023-05-21T12:58:50.626Z,10.60
2023-05-21T12:59:57.606Z,9.65
2023-05-21T13:00:59.610Z,10.48
2023-05-21T13:02:01.379Z,9.95
2023-05-21T13:03:06.232Z,9.50
2023-05-21T13:04:08.625Z,11.15
2023-05-21T13:05:17.281Z,8.45
2023-05-21T13:06:19.194Z,7.47
2023-05-21T13:07:21.051Z,9.50
2023-05-21T13:08:22.850Z,11.18
2023-05-21T13:09:24.628Z,9.13
2023-05-21T13:10:26.417Z,8.38
2023-05-21T13:11:28.181Z,6.75
2023-05-21T13:12:31.834Z,11.38
2023-05-21T13:13:33.607Z,9.73
2023-05-21T13:14:35.407Z,7.68
2023-05-21T13:15:37.179Z,11.57
2023-05-21T13:16:39.368Z,8.63
2023-05-21T13:17:41.316Z,7.95
2023-05-21T13:18:43.218Z,6.95
2023-05-21T13:20:08.904Z,7.23
2023-05-21T13:21:10.878Z,7.93
2023-05-21T13:22:12.684Z,11.45
2023-05-21T13:23:16.153Z,10.63
2023-05-21T13:24:17.947Z,9.05
2023-05-21T13:25:24.396Z,9.07
2023-05-21T13:26:26.232Z,8.05
2023-05-21T13:27:28.447Z,9.68
2023-05-21T13:28:30.212Z,13.38
2023-05-21T13:29:31.987Z,6.75
2023-05-21T13:30:33.842Z,7.40
2023-05-21T13:31:35.910Z,14.02
2023-05-21T13:32:39.214Z,9.45
2023-05-21T13:33:41.128Z,9.55
2023-05-21T13:34:42.961Z,8.82
2023-05-21T13:35:45.675Z,10.00
2023-05-21T13:36:47.471Z,9.48
2023-05-21T13:37:49.295Z,8.43
2023-05-21T13:38:51.272Z,7.03
2023-05-21T13:39:53.095Z,10.45
2023-05-21T13:40:54.897Z,8.97
2023-05-21T13:41:57.024Z,9.05
2023-05-21T13:42:58.816Z,10.23
2023-05-21T13:44:00.699Z,10.32
2023-05-21T13:45:02.518Z,10.90
2023-05-21T13:46:04.497Z,11.27